Time;durP1;ratioP1;P1;durP2;ratioP2;P2;SDS_P1;SDS_P2;PMS_P1;PMS_P2;Temp;Humidity;BMP_temperature;BMP_pressure;BME280_temperature;BME280_humidity;BME280_pressure;Samples;Min_cycle;Max_cycle;Signal;HPM_P1;HPM_P2
2022/12/08 04:01:24;;;;;;;;;;;16.30;50.30;;;;;;5526969;23;46146;-56
2022/12/08 04:03:50;;;;;;;;;;;16.30;50.30;;;;;;4983931;28;45094;-56
2022/12/08 04:06:15;;;;;;;;;;;16.30;50.30;;;;;;4991749;28;45574;-58
2022/12/08 04:08:41;;;;;;;;;;;16.30;50.40;;;;;;4994504;28;45476;-58
2022/12/08 04:11:06;;;;;;;;;;;16.20;50.40;;;;;;4979565;28;45093;-58
2022/12/08 04:13:33;;;;;;;;;;;16.20;50.40;;;;;;5011369;28;45341;-59
2022/12/08 04:15:58;;;;;;;;;;;16.20;50.40;;;;;;4997207;28;45330;-57
2022/12/08 04:18:24;;;;;;;;;;;16.20;50.40;;;;;;5008890;28;45542;-57
2022/12/08 04:20:49;;;;;;;;;;;16.20;50.40;;;;;;5021011;28;45177;-56
2022/12/08 04:23:14;;;;;;;;;;;16.20;50.40;;;;;;4991437;28;45653;-57
2022/12/08 04:25:40;;;;;;;;;;;16.20;50.40;;;;;;5003925;28;45281;-58
2022/12/08 04:28:06;;;;;;;;;;;16.20;50.40;;;;;;5003113;28;44741;-58
2022/12/08 04:30:31;;;;;;;;;;;16.20;50.40;;;;;;5008656;28;44961;-58
2022/12/08 04:32:57;;;;;;;;;;;16.20;50.30;;;;;;5017892;28;45270;-58
2022/12/08 04:35:22;;;;;;;;;;;16.20;50.40;;;;;;5039014;28;45250;-58
2022/12/08 04:37:48;;;;;;;;;;;16.20;50.30;;;;;;5004380;28;45133;-58
2022/12/08 04:40:13;;;;;;;;;;;16.10;50.40;;;;;;5008733;28;45985;-58
2022/12/08 04:42:39;;;;;;;;;;;16.10;50.40;;;;;;5020226;28;45746;-57
2022/12/08 04:45:04;;;;;;;;;;;16.10;50.40;;;;;;5024899;28;45576;-62
2022/12/08 04:47:30;;;;;;;;;;;16.10;50.40;;;;;;5025246;28;45738;-58
2022/12/08 04:49:55;;;;;;;;;;;16.10;50.40;;;;;;5005432;28;45533;-58
2022/12/08 04:52:21;;;;;;;;;;;16.10;50.50;;;;;;5008831;28;45523;-58
2022/12/08 04:54:46;;;;;;;;;;;16.10;50.50;;;;;;5026268;28;45293;-57
2022/12/08 04:57:12;;;;;;;;;;;16.10;50.40;;;;;;5026397;28;45716;-58
2022/12/08 04:59:37;;;;;;;;;;;16.10;50.40;;;;;;5030846;28;45202;-58
2022/12/08 05:02:03;;;;;;;;;;;16.00;50.40;;;;;;5014021;28;45265;-58
2022/12/08 05:04:28;;;;;;;;;;;16.00;50.40;;;;;;5003669;28;47060;-57
2022/12/08 05:06:53;;;;;;;;;;;16.00;50.40;;;;;;5034352;28;45186;-61
2022/12/08 05:09:19;;;;;;;;;;;16.00;50.40;;;;;;5025057;28;45407;-59
2022/12/08 05:11:44;;;;;;;;;;;16.00;50.40;;;;;;5026482;28;45356;-59
2022/12/08 05:14:10;;;;;;;;;;;16.00;50.40;;;;;;5038923;28;45064;-58
2022/12/08 05:16:36;;;;;;;;;;;16.00;50.40;;;;;;5008128;28;45187;-58
2022/12/08 05:19:02;;;;;;;;;;;16.00;50.50;;;;;;5015219;28;46156;-59
2022/12/08 05:21:27;;;;;;;;;;;16.00;50.40;;;;;;4995627;28;44719;-57
2022/12/08 05:23:53;;;;;;;;;;;16.00;50.50;;;;;;5033546;28;46270;-57
2022/12/08 05:26:18;;;;;;;;;;;16.00;50.50;;;;;;4994909;28;45685;-58
2022/12/08 05:28:44;;;;;;;;;;;16.00;50.50;;;;;;4995592;28;45618;-58
2022/12/08 05:31:10;;;;;;;;;;;16.00;50.50;;;;;;5029460;28;45555;-58
2022/12/08 05:33:35;;;;;;;;;;;16.00;50.60;;;;;;5029705;28;45942;-58
2022/12/08 05:36:01;;;;;;;;;;;15.90;50.50;;;;;;5018253;28;45605;-59
2022/12/08 05:38:26;;;;;;;;;;;15.90;50.50;;;;;;5010996;28;45667;-58
2022/12/08 05:40:51;;;;;;;;;;;15.90;50.60;;;;;;5029542;28;45769;-59
2022/12/08 05:43:17;;;;;;;;;;;15.90;50.60;;;;;;5029951;28;46580;-58
2022/12/08 05:45:42;;;;;;;;;;;15.90;50.50;;;;;;5022039;28;45145;-59
2022/12/08 05:48:08;;;;;;;;;;;15.90;50.50;;;;;;5030066;28;45052;-59
2022/12/08 05:50:33;;;;;;;;;;;15.90;50.60;;;;;;5024192;28;45584;-59
2022/12/08 05:52:59;;;;;;;;;;;15.90;50.60;;;;;;5026907;28;45336;-58
2022/12/08 05:55:24;;;;;;;;;;;15.80;50.50;;;;;;5029437;28;45012;-59
2022/12/08 05:57:50;;;;;;;;;;;15.90;50.60;;;;;;5014625;28;45419;-58
2022/12/08 06:00:15;;;;;;;;;;;15.90;50.60;;;;;;5008667;28;45203;-58
2022/12/08 06:02:41;;;;;;;;;;;15.90;50.60;;;;;;5000413;28;46474;-58
2022/12/08 06:05:07;;;;;;;;;;;15.80;50.60;;;;;;5031994;28;45205;-57
2022/12/08 06:07:32;;;;;;;;;;;15.80;50.50;;;;;;5008617;28;44766;-58
2022/12/08 06:09:58;;;;;;;;;;;15.80;50.60;;;;;;5026697;28;45135;-57
2022/12/08 06:12:23;;;;;;;;;;;15.80;50.60;;;;;;5019260;28;46523;-59
2022/12/08 06:14:49;;;;;;;;;;;15.80;50.50;;;;;;5036779;28;45045;-57
2022/12/08 06:17:14;;;;;;;;;;;15.80;50.60;;;;;;5029626;28;44903;-59
2022/12/08 06:19:40;;;;;;;;;;;15.80;50.60;;;;;;5026506;28;44968;-59
2022/12/08 06:22:05;;;;;;;;;;;15.80;50.60;;;;;;5021765;28;45531;-58
2022/12/08 06:24:30;;;;;;;;;;;15.80;50.60;;;;;;4996706;28;45589;-59
2022/12/08 06:26:56;;;;;;;;;;;15.70;50.60;;;;;;5036295;28;45581;-58
2022/12/08 06:29:22;;;;;;;;;;;15.80;50.60;;;;;;4997338;28;45001;-59
2022/12/08 06:31:47;;;;;;;;;;;15.70;50.60;;;;;;5006363;28;47879;-59
2022/12/08 06:34:12;;;;;;;;;;;15.70;50.60;;;;;;5020854;28;45561;-59
2022/12/08 06:36:38;;;;;;;;;;;15.70;50.60;;;;;;5028884;28;45481;-58
2022/12/08 06:39:03;;;;;;;;;;;15.70;50.70;;;;;;5029588;28;45511;-57
2022/12/08 06:41:29;;;;;;;;;;;15.70;50.60;;;;;;5028326;28;45652;-57
2022/12/08 06:43:56;;;;;;;;;;;15.70;50.60;;;;;;5024752;28;45273;-58
2022/12/08 06:46:21;;;;;;;;;;;15.70;50.70;;;;;;5007728;28;45516;-59
2022/12/08 06:48:47;;;;;;;;;;;15.70;50.60;;;;;;5028396;28;45298;-58
2022/12/08 06:51:14;;;;;;;;;;;15.70;50.60;;;;;;5040270;28;46458;-58
2022/12/08 06:53:39;;;;;;;;;;;15.60;50.60;;;;;;5017912;28;45756;-58
2022/12/08 06:56:05;;;;;;;;;;;15.70;50.60;;;;;;5012601;28;45009;-59
2022/12/08 06:58:30;;;;;;;;;;;15.60;50.70;;;;;;5039607;28;45056;-59
2022/12/08 07:00:56;;;;;;;;;;;15.60;50.60;;;;;;5003564;28;45995;-58
2022/12/08 07:03:21;;;;;;;2.00;1.00;;;15.60;50.70;;;;;;5032805;28;45412;-59
2022/12/08 07:05:47;;;;;;;3.35;0.98;;;15.60;50.40;;;;;;5003554;28;44973;-61
2022/12/08 07:08:12;;;;;;;1.35;1.00;;;15.70;50.90;;;;;;5010462;28;45434;-60
2022/12/08 07:10:38;;;;;;;1.15;0.90;;;15.60;50.20;;;;;;5027781;28;46445;-60
2022/12/08 07:13:03;;;;;;;1.10;0.95;;;15.70;50.20;;;;;;5033900;28;45511;-60
2022/12/08 07:15:29;;;;;;;1.00;0.90;;;15.80;50.10;;;;;;5007446;28;45070;-58
2022/12/08 07:17:54;;;;;;;1.08;0.98;;;16.00;50.00;;;;;;5040142;28;45080;-58
2022/12/08 07:20:20;;;;;;;1.20;0.90;;;16.10;49.70;;;;;;5015356;28;46252;-59
2022/12/08 07:22:49;;;;;;;1.00;0.90;;;16.30;50.10;;;;;;5006256;28;45195;-59
2022/12/08 07:25:15;;;;;;;2.13;0.90;;;16.50;49.20;;;;;;4986435;28;44649;-60
2022/12/08 07:27:41;;;;;;;5.45;1.00;;;16.70;49.00;;;;;;5009212;28;45642;-58
2022/12/08 07:30:07;;;;;;;0.90;0.70;;;16.90;48.80;;;;;;5013206;28;46024;-60
2022/12/08 07:32:33;;;;;;;0.90;0.80;;;17.00;48.70;;;;;;5011080;28;45410;-61
2022/12/08 07:34:58;;;;;;;0.98;0.70;;;17.10;48.40;;;;;;5039968;28;45622;-60
2022/12/08 07:37:24;;;;;;;3.50;0.98;;;17.30;48.30;;;;;;5018410;28;45969;-60
2022/12/08 07:39:49;;;;;;;0.70;0.70;;;17.50;48.20;;;;;;5038407;28;45414;-60
2022/12/08 07:42:15;;;;;;;1.10;0.90;;;17.60;47.90;;;;;;5036871;28;45275;-59
2022/12/08 07:44:40;;;;;;;0.70;0.70;;;17.70;47.80;;;;;;5026945;28;44827;-59
2022/12/08 07:47:06;;;;;;;1.88;0.68;;;17.90;47.80;;;;;;5001101;28;45114;-59
2022/12/08 07:49:32;;;;;;;1.30;0.75;;;17.90;47.60;;;;;;5029913;28;46342;-58
2022/12/08 07:51:57;;;;;;;1.23;0.82;;;17.90;47.70;;;;;;5004765;28;45609;-60
2022/12/08 07:54:23;;;;;;;0.60;0.60;;;18.00;47.70;;;;;;4993366;28;45481;-60
2022/12/08 07:56:48;;;;;;;1.05;0.95;;;18.00;47.60;;;;;;5034113;28;45491;-59
2022/12/08 07:59:14;;;;;;;2.45;0.90;;;18.20;47.60;;;;;;5032848;28;45256;-61
2022/12/08 08:01:39;;;;;;;;;;;18.30;47.40;;;;;;5038339;28;44929;-61
2022/12/08 08:04:05;;;;;;;;;;;18.40;46.90;;;;;;5034167;28;45422;-60
2022/12/08 08:06:30;;;;;;;;;;;18.50;46.80;;;;;;5015870;28;45394;-60
2022/12/08 08:08:56;;;;;;;;;;;18.70;46.60;;;;;;5022629;28;45116;-60
2022/12/08 08:11:21;;;;;;;;;;;18.80;46.40;;;;;;5015162;28;45207;-61
2022/12/08 08:13:47;;;;;;;;;;;19.00;46.20;;;;;;5012511;28;45195;-60
2022/12/08 08:16:13;;;;;;;;;;;19.10;46.10;;;;;;5000992;28;45243;-61
2022/12/08 08:18:39;;;;;;;;;;;19.20;45.90;;;;;;5040583;28;45458;-59
2022/12/08 08:21:05;;;;;;;1.25;0.80;;;19.30;45.70;;;;;;5001039;28;45343;-61
2022/12/08 08:23:32;;;;;;;0.70;0.60;;;19.50;46.10;;;;;;5028766;28;45236;-59
2022/12/08 08:25:59;;;;;;;0.85;0.65;;;19.60;45.90;;;;;;4986553;28;44906;-60
2022/12/08 08:28:25;;;;;;;1.33;0.90;;;19.70;45.90;;;;;;5028128;28;45287;-61
2022/12/08 08:30:50;;;;;;;1.00;0.82;;;19.70;45.70;;;;;;5028607;28;45243;-60
2022/12/08 08:33:16;;;;;;;1.10;0.80;;;19.70;45.80;;;;;;5022330;28;45531;-59
2022/12/08 08:35:41;;;;;;;1.17;0.70;;;19.70;45.90;;;;;;5025233;28;44942;-59
2022/12/08 08:38:07;;;;;;;0.65;0.65;;;19.80;45.90;;;;;;5005320;28;45208;-60
2022/12/08 08:40:33;;;;;;;0.77;0.70;;;19.80;45.70;;;;;;5038145;28;45428;-61
2022/12/08 08:43:02;;;;;;;1.27;0.80;;;20.00;45.70;;;;;;5008010;28;45648;-60
2022/12/08 08:45:27;;;;;;;1.30;0.70;;;20.10;45.40;;;;;;5001326;28;45350;-60
2022/12/08 08:47:53;;;;;;;0.93;0.85;;;20.20;45.40;;;;;;4996412;28;46224;-59
2022/12/08 08:50:19;;;;;;;1.00;0.80;;;20.30;45.20;;;;;;5027529;28;44903;-60
2022/12/08 08:52:44;;;;;;;0.90;0.73;;;20.50;45.10;;;;;;4994354;28;45257;-60
2022/12/08 08:55:10;;;;;;;0.77;0.63;;;20.60;44.90;;;;;;4991095;28;45424;-59
2022/12/08 08:57:35;;;;;;;1.15;0.60;;;20.70;44.80;;;;;;5030285;28;46588;-60
2022/12/08 09:00:02;;;;;;;0.85;0.80;;;20.80;44.70;;;;;;4997180;28;45272;-58
2022/12/08 09:02:28;;;;;;;1.10;0.70;;;20.90;44.50;;;;;;5011341;28;45466;-60
2022/12/08 09:04:53;;;;;;;2.08;0.65;;;21.00;44.50;;;;;;5046187;28;45620;-59
2022/12/08 09:07:19;;;;;;;1.38;0.68;;;21.10;44.40;;;;;;5028888;28;46502;-60
2022/12/08 09:09:44;;;;;;;1.35;0.70;;;21.20;44.30;;;;;;5013579;28;45521;-59
2022/12/08 09:12:10;;;;;;;0.77;0.63;;;21.20;44.20;;;;;;5005748;28;45356;-60
2022/12/08 09:14:36;;;;;;;2.75;0.70;;;21.20;44.20;;;;;;5010387;28;44933;-60
2022/12/08 09:17:01;;;;;;;0.50;0.50;;;21.20;44.30;;;;;;5034814;28;46332;-60
2022/12/08 09:19:27;;;;;;;1.40;0.80;;;21.20;44.40;;;;;;5035099;28;45206;-59
2022/12/08 09:21:52;;;;;;;0.80;0.60;;;21.30;44.30;;;;;;5008014;28;44805;-60
2022/12/08 09:24:18;;;;;;;0.60;0.60;;;21.30;44.10;;;;;;5033632;28;45453;-61
2022/12/08 09:26:43;;;;;;;2.25;0.60;;;21.50;44.00;;;;;;5007994;28;45501;-61
2022/12/08 09:29:09;;;;;;;1.42;0.55;;;21.60;43.90;;;;;;5015051;28;45194;-60
2022/12/08 09:31:35;;;;;;;0.75;0.55;;;21.70;43.70;;;;;;5024618;28;44879;-59
2022/12/08 09:34:01;;;;;;;1.10;0.70;;;21.80;43.70;;;;;;5019519;28;45805;-60
2022/12/08 09:36:26;;;;;;;0.70;0.60;;;21.90;43.50;;;;;;5016472;28;45470;-61
2022/12/08 09:38:55;;;;;;;1.10;0.80;;;22.00;43.50;;;;;;5002018;28;44960;-60
2022/12/08 09:41:36;;;;;;;2.08;0.60;;;22.10;43.30;;;;;;5025062;28;45495;-61
2022/12/08 09:44:05;;;;;;;1.13;0.68;;;22.10;42.90;;;;;;5025706;28;45578;-61
2022/12/08 09:46:31;;;;;;;1.40;0.60;;;22.20;43.20;;;;;;5011889;28;45364;-60
2022/12/08 09:48:57;;;;;;;0.47;0.40;;;22.20;43.20;;;;;;4994662;28;44672;-61
2022/12/08 09:51:24;;;;;;;1.05;0.63;;;22.30;43.20;;;;;;5014532;28;44932;-61
2022/12/08 09:53:53;;;;;;;3.65;0.63;;;22.40;43.10;;;;;;4987689;28;45472;-61
2022/12/08 09:56:28;;;;;;;0.75;0.50;;;22.40;43.10;;;;;;5018838;28;45555;-60
2022/12/08 09:59:02;;;;;;;1.08;0.65;;;22.50;42.90;;;;;;5016092;28;44968;-61
2022/12/08 10:01:33;;;;;;;0.70;0.70;;;22.50;42.70;;;;;;4999449;28;44999;-61
2022/12/08 10:03:59;;;;;;;0.60;0.50;;;22.60;42.80;;;;;;4988276;28;44866;-61
2022/12/08 10:06:40;;;;;;;3.22;0.70;;;22.60;42.90;;;;;;4996627;28;47148;-60
2022/12/08 10:09:28;;;;;;;2.10;0.65;;;22.70;42.50;;;;;;4999860;28;44976;-61
2022/12/08 10:12:02;;;;;;;3.92;0.60;;;22.60;42.50;;;;;;5012251;28;44950;-61
2022/12/08 10:14:35;;;;;;;1.23;0.60;;;22.60;42.60;;;;;;4986191;28;44845;-60
2022/12/08 10:17:04;;;;;;;0.60;0.60;;;22.60;42.80;;;;;;4989927;28;46004;-60
2022/12/08 10:19:30;;;;;;;3.17;0.70;;;22.60;42.70;;;;;;4989493;28;45223;-59
2022/12/08 10:21:56;;;;;;;0.50;0.40;;;22.70;42.70;;;;;;5001643;28;45567;-59
2022/12/08 10:24:39;;;;;;;0.40;0.40;;;22.80;42.70;;;;;;5015440;28;45343;-60
2022/12/08 10:27:05;;;;;;;0.85;0.60;;;22.80;42.60;;;;;;4998575;28;46477;-61
2022/12/08 10:29:30;;;;;;;0.85;0.70;;;22.90;42.50;;;;;;5006155;28;45221;-61
2022/12/08 10:31:56;;;;;;;0.77;0.50;;;23.00;42.50;;;;;;5016539;28;45026;-59
2022/12/08 10:34:23;;;;;;;0.57;0.50;;;23.00;42.40;;;;;;4993974;28;45103;-62
2022/12/08 10:36:51;;;;;;;0.55;0.52;;;23.10;42.40;;;;;;4992706;28;46930;-61
2022/12/08 10:39:33;;;;;;;2.95;0.60;;;23.10;42.30;;;;;;5029189;28;45175;-59
2022/12/08 10:42:18;;;;;;;0.65;0.55;;;23.20;41.90;;;;;;5019386;28;45045;-60
2022/12/08 10:44:58;;;;;;;1.00;0.50;;;23.30;42.00;;;;;;4998383;28;45524;-60
2022/12/08 10:47:27;;;;;;;0.68;0.43;;;23.30;41.90;;;;;;5013054;28;45521;-61
2022/12/08 10:50:16;;;;;;;0.73;0.50;;;23.40;41.90;;;;;;5005257;28;45291;-61
2022/12/08 10:52:42;;;;;;;0.52;0.52;;;23.50;41.60;;;;;;5024977;28;44951;-58
2022/12/08 10:55:18;;;;;;;2.47;0.65;;;23.50;41.90;;;;;;5004226;28;45322;-61
2022/12/08 10:57:43;;;;;;;0.55;0.40;;;23.50;41.60;;;;;;5010929;28;47081;-58
2022/12/08 11:00:17;;;;;;;4.97;0.60;;;23.60;41.80;;;;;;5028213;28;44861;-62
2022/12/08 11:02:57;;;;;;;0.45;0.45;;;23.60;41.80;;;;;;4997325;28;45382;-61
2022/12/08 11:05:25;;;;;;;0.60;0.60;;;23.70;41.50;;;;;;5013593;28;45102;-61
2022/12/08 11:07:51;;;;;;;1.75;0.70;;;23.70;41.70;;;;;;5003879;28;46074;-60
2022/12/08 11:10:17;;;;;;;4.13;0.60;;;23.80;41.70;;;;;;4999492;28;45198;-59
2022/12/08 11:12:43;;;;;;;0.82;0.63;;;23.80;41.60;;;;;;4995509;28;44839;-62
2022/12/08 11:15:14;;;;;;;1.38;0.73;;;23.90;41.60;;;;;;5001659;28;45134;-60
2022/12/08 11:17:40;;;;;;;0.65;0.50;;;23.90;41.50;;;;;;5008031;28;45564;-61
2022/12/08 11:20:08;;;;;;;1.55;0.40;;;23.90;41.50;;;;;;5036983;28;45109;-59
2022/12/08 11:22:37;;;;;;;0.70;0.60;;;23.90;41.40;;;;;;5032070;28;45348;-60
2022/12/08 11:25:06;;;;;;;1.80;0.70;;;24.00;41.40;;;;;;5013576;28;45275;-60
2022/12/08 11:27:32;;;;;;;0.63;0.50;;;24.00;41.40;;;;;;5026032;28;46084;-60
2022/12/08 11:29:59;;;;;;;0.88;0.52;;;24.00;41.40;;;;;;4996823;28;45325;-60
2022/12/08 11:32:24;;;;;;;0.70;0.60;;;24.10;41.30;;;;;;5025989;28;45259;-60
2022/12/08 11:35:02;;;;;;;0.88;0.47;;;24.10;41.30;;;;;;5012438;28;45383;-60
2022/12/08 11:37:34;;;;;;;0.65;0.40;;;24.10;40.90;;;;;;4999748;28;46655;-59
2022/12/08 11:40:03;;;;;;;0.70;0.50;;;24.10;41.20;;;;;;5019778;28;44701;-61
2022/12/08 11:42:32;;;;;;;1.15;0.50;;;24.20;41.10;;;;;;5006821;28;45383;-60
2022/12/08 11:44:58;;;;;;;2.47;0.55;;;24.20;41.20;;;;;;4990544;28;45248;-60
2022/12/08 11:47:30;;;;;;;0.93;0.45;;;24.20;41.10;;;;;;5031532;28;45261;-60
2022/12/08 11:50:01;;;;;;;1.08;0.57;;;24.20;41.10;;;;;;4993686;28;45419;-60
2022/12/08 11:52:40;;;;;;;2.03;0.63;;;24.30;41.00;;;;;;5000838;28;45237;-60
2022/12/08 11:55:15;;;;;;;;;;;24.20;40.70;;;;;;5018228;28;45187;-57
2022/12/08 11:57:40;;;;;;;;;;;24.10;40.90;;;;;;5024503;28;45434;-52
2022/12/08 12:00:08;;;;;;;;;;;24.00;40.50;;;;;;5033420;28;44932;-59
2022/12/08 12:02:34;;;;;;;;;;;23.90;40.80;;;;;;5013517;28;45715;-57
2022/12/08 12:05:01;;;;;;;;;;;23.90;41.00;;;;;;5006225;28;45226;-55
2022/12/08 12:07:27;;;;;;;;;;;23.90;41.10;;;;;;5027652;28;46871;-55
2022/12/08 12:09:55;;;;;;;;;;;24.00;41.10;;;;;;5028361;28;45419;-55
2022/12/08 12:12:27;;;;;;;;;;;24.00;41.10;;;;;;5017209;28;45199;-59
2022/12/08 12:15:11;;;;;;;;;;;24.00;41.70;;;;;;5024023;28;45159;-55
2022/12/08 12:17:40;;;;;;;;;;;24.10;41.00;;;;;;5020799;28;46152;-52
2022/12/08 12:20:10;;;;;;;;;;;24.10;41.00;;;;;;5036854;28;44718;-57
2022/12/08 12:22:36;;;;;;;;;;;24.10;41.00;;;;;;5014985;28;45418;-55
2022/12/08 12:25:01;;;;;;;;;;;24.20;41.00;;;;;;5024722;28;44800;-55
2022/12/08 12:27:28;;;;;;;;;;;24.20;40.90;;;;;;5030265;28;46714;-60
2022/12/08 12:29:56;;;;;;;;;;;24.20;40.90;;;;;;5007635;28;45633;-57
2022/12/08 12:32:21;;;;;;;;;;;24.30;40.80;;;;;;5015471;28;44644;-59
2022/12/08 12:34:56;;;;;;;;;;;24.30;40.80;;;;;;5028230;28;45474;-62
2022/12/08 12:37:22;;;;;;;;;;;24.30;40.80;;;;;;5013092;28;45263;-57
2022/12/08 12:39:48;;;;;;;;;;;24.30;40.80;;;;;;5020307;28;45252;-55
2022/12/08 12:42:32;;;;;;;;;;;24.30;40.80;;;;;;5023007;28;45492;-55
2022/12/08 12:45:16;;;;;;;;;;;24.30;40.90;;;;;;5030132;28;45141;-65
2022/12/08 12:47:48;;;;;;;;;;;24.30;40.90;;;;;;5022708;28;45461;-55
2022/12/08 12:50:46;;;;;;;;;;;24.30;41.00;;;;;;5037028;28;45134;-54
2022/12/08 12:53:14;;;;;;;;;;;24.30;41.00;;;;;;4978778;28;45146;-57
2022/12/08 12:55:55;;;;;;;;;;;24.30;41.10;;;;;;5017407;28;45588;-61
2022/12/08 12:58:27;;;;;;;;;;;24.30;41.10;;;;;;5023524;28;46497;-59
2022/12/08 13:01:11;;;;;;;;;;;24.30;41.20;;;;;;5016881;28;45407;-56
2022/12/08 13:03:37;;;;;;;;;;;24.30;41.30;;;;;;5032565;28;45269;-60
2022/12/08 13:06:02;;;;;;;;;;;24.20;41.20;;;;;;5040401;28;45226;-55
2022/12/08 13:08:28;;;;;;;;;;;24.20;41.30;;;;;;5023175;28;45190;-58
2022/12/08 13:10:58;;;;;;;;;;;24.20;41.30;;;;;;5023197;28;45504;-57
2022/12/08 13:13:24;;;;;;;;;;;24.20;41.30;;;;;;5006496;28;45618;-57
2022/12/08 13:15:53;;;;;;;;;;;24.20;41.30;;;;;;5041357;28;45181;-56
2022/12/08 13:18:26;;;;;;;;;;;24.20;41.30;;;;;;5006995;28;45385;-59
2022/12/08 13:21:03;;;;;;;;;;;24.20;41.30;;;;;;5031413;28;45161;-56
2022/12/08 13:23:28;;;;;;;;;;;24.20;41.40;;;;;;5015562;28;44832;-60
2022/12/08 13:26:10;;;;;;;;;;;24.20;41.40;;;;;;5041047;28;45253;-53
2022/12/08 13:28:54;;;;;;;;;;;24.20;41.30;;;;;;5030254;28;45480;-59
2022/12/08 13:31:39;;;;;;;;;;;24.20;41.40;;;;;;5019963;28;44697;-56
2022/12/08 13:34:14;;;;;;;;;;;24.20;41.30;;;;;;5025820;28;45507;-62
2022/12/08 13:36:46;;;;;;;;;;;24.20;41.30;;;;;;5026556;28;46213;-56
2022/12/08 13:39:14;;;;;;;;;;;24.20;41.30;;;;;;5015837;28;46270;-57
2022/12/08 13:41:41;;;;;;;;;;;24.30;41.30;;;;;;5010750;28;44823;-53
2022/12/08 13:44:14;;;;;;;;;;;24.20;41.30;;;;;;5029374;28;45371;-57
2022/12/08 13:46:43;;;;;;;;;;;24.30;41.30;;;;;;5009872;28;44887;-54
2022/12/08 13:49:10;;;;;;;;;;;24.30;41.30;;;;;;5014005;28;46557;-54
2022/12/08 13:51:40;;;;;;;;;;;24.20;41.30;;;;;;5010254;28;45471;-56
2022/12/08 13:54:06;;;;;;;;;;;24.30;41.40;;;;;;5015210;28;45311;-56
2022/12/08 13:56:35;;;;;;;;;;;24.30;41.30;;;;;;5019081;28;45491;-56
2022/12/08 13:59:20;;;;;;;;;;;24.30;41.40;;;;;;5016456;28;45397;-51
2022/12/08 14:01:46;;;;;;;;;;;24.30;41.30;;;;;;5026975;28;45367;-55
2022/12/08 14:04:16;;;;;;;;;;;24.30;41.30;;;;;;5030319;28;45242;-51
2022/12/08 14:06:42;;;;;;;;;;;24.30;41.30;;;;;;5032840;28;44750;-58
2022/12/08 14:09:15;;;;;;;;;;;24.30;41.40;;;;;;5010086;28;45568;-58
2022/12/08 14:11:46;;;;;;;;;;;24.30;41.30;;;;;;5007170;28;45427;-55
2022/12/08 14:14:23;;;;;;;;;;;24.20;41.50;;;;;;5008115;28;45138;-58
2022/12/08 14:16:53;;;;;;;;;;;24.10;41.60;;;;;;5028429;28;44657;-58
2022/12/08 14:19:26;;;;;;;;;;;24.10;41.80;;;;;;5028900;28;45425;-57
2022/12/08 14:21:55;;;;;;;;;;;24.10;41.70;;;;;;5002715;28;45633;-58
2022/12/08 14:24:25;;;;;;;;;;;24.20;41.70;;;;;;5028040;28;45318;-55
2022/12/08 14:26:52;;;;;;;;;;;24.30;41.60;;;;;;5039548;28;46092;-54
2022/12/08 14:29:56;;;;;;;;;;;24.30;41.60;;;;;;5025773;28;46454;-54
2022/12/08 14:32:21;;;;;;;;;;;24.40;41.60;;;;;;4965139;28;45423;-57
2022/12/08 14:34:57;;;;;;;;;;;24.40;41.50;;;;;;4970639;28;45336;-54
2022/12/08 14:37:23;;;;;;;;;;;24.40;41.40;;;;;;5006509;28;45350;-58
2022/12/08 14:39:48;;;;;;;;;;;24.40;41.30;;;;;;5028881;28;45553;-58
2022/12/08 14:42:23;;;;;;;;;;;24.40;41.40;;;;;;5003469;28;45556;-57
2022/12/08 14:44:59;;;;;;;;;;;24.40;41.40;;;;;;5026119;28;45587;-55
2022/12/08 14:47:29;;;;;;;;;;;24.40;41.30;;;;;;5003918;28;45645;-57
2022/12/08 14:49:55;;;;;;;;;;;24.40;41.40;;;;;;5019446;28;45437;-56
2022/12/08 14:52:20;;;;;;;;;;;24.40;41.40;;;;;;5012752;28;45401;-59
2022/12/08 14:54:47;;;;;;;;;;;24.50;41.50;;;;;;5031247;28;45440;-55
2022/12/08 14:57:13;;;;;;;;;;;24.50;41.40;;;;;;5025465;28;45594;-55
2022/12/08 14:59:38;;;;;;;;;;;24.50;41.40;;;;;;5020377;28;45883;-54
2022/12/08 15:02:23;;;;;;;;;;;24.50;41.40;;;;;;5011538;28;45141;-55
2022/12/08 15:04:49;;;;;;;;;;;24.50;41.40;;;;;;5024566;28;45496;-56
2022/12/08 15:07:15;;;;;;;;;;;24.50;41.40;;;;;;5008436;28;45521;-54
2022/12/08 15:09:42;;;;;;;;;;;24.50;41.40;;;;;;5025356;28;47882;-55
2022/12/08 15:12:10;;;;;;;;;;;24.50;41.40;;;;;;5014866;28;45350;-54
2022/12/08 15:14:36;;;;;;;;;;;24.50;41.40;;;;;;5035203;28;45121;-58
2022/12/08 15:17:02;;;;;;;;;;;24.50;41.40;;;;;;5016563;28;45074;-54
2022/12/08 15:19:28;;;;;;;;;;;24.50;41.40;;;;;;5040933;28;45278;-55
2022/12/08 15:21:54;;;;;;;;;;;24.60;41.50;;;;;;5023863;28;45176;-51
2022/12/08 15:24:21;;;;;;;;;;;24.60;41.50;;;;;;5014550;28;48538;-62
2022/12/08 15:26:47;;;;;;;;;;;24.60;41.50;;;;;;5035099;28;46120;-58
2022/12/08 15:29:19;;;;;;;;;;;24.60;41.50;;;;;;5035676;28;45355;-56
2022/12/08 15:31:44;;;;;;;;;;;24.60;41.50;;;;;;5025931;28;45530;-58
2022/12/08 15:34:10;;;;;;;;;;;24.60;41.50;;;;;;5032564;28;45142;-61
2022/12/08 15:36:36;;;;;;;;;;;24.60;41.60;;;;;;5012792;28;45394;-59
2022/12/08 15:39:03;;;;;;;;;;;24.60;41.50;;;;;;5034891;28;47383;-53
2022/12/08 15:41:29;;;;;;;;;;;24.60;41.50;;;;;;5017527;28;44740;-58
2022/12/08 15:43:54;;;;;;;;;;;24.60;41.50;;;;;;5029152;28;45370;-54
2022/12/08 15:46:20;;;;;;;;;;;24.60;41.50;;;;;;5033784;28;45596;-64
2022/12/08 15:48:45;;;;;;;;;;;24.60;41.50;;;;;;5046171;28;46129;-56
2022/12/08 15:51:11;;;;;;;;;;;24.60;41.50;;;;;;5014018;28;45294;-54
2022/12/08 15:53:36;;;;;;;;;;;24.70;41.50;;;;;;5033373;28;45508;-57
2022/12/08 15:56:03;;;;;;;;;;;24.70;41.50;;;;;;5030166;28;44898;-60
2022/12/08 15:58:28;;;;;;;;;;;24.70;41.50;;;;;;5024278;28;46948;-55
2022/12/08 16:00:53;;;;;;;;;;;24.70;41.50;;;;;;5044356;28;44958;-58
2022/12/08 16:03:23;;;;;;;;;;;24.70;41.50;;;;;;5020112;28;45389;-59
2022/12/08 16:05:48;;;;;;;;;;;24.70;41.50;;;;;;5026124;28;45145;-54
2022/12/08 16:08:15;;;;;;;;;;;24.70;41.50;;;;;;5028155;28;46307;-54
2022/12/08 16:10:41;;;;;;;;;;;24.70;41.50;;;;;;5027393;28;45413;-55
2022/12/08 16:15:55;;;;;;;;;;;24.70;41.40;;;;;;5033931;28;45240;-56
2022/12/08 16:18:22;;;;;;;;;;;24.70;41.50;;;;;;5046310;28;45531;-51
2022/12/08 16:20:48;;;;;;;;;;;24.70;41.50;;;;;;5007554;28;45649;-58
2022/12/08 16:23:13;;;;;;;;;;;24.70;41.50;;;;;;5033202;28;45389;-54
2022/12/08 16:25:40;;;;;;;;;;;24.60;41.60;;;;;;5027244;28;45494;-53
2022/12/08 16:28:05;;;;;;;;;;;24.50;41.60;;;;;;5034640;28;45555;-57
2022/12/08 16:30:31;;;;;;;;;;;24.50;41.60;;;;;;5041031;28;45194;-57
2022/12/08 16:32:56;;;;;;;;;;;24.60;41.70;;;;;;5035913;28;45639;-59
2022/12/08 16:35:22;;;;;;;;;;;24.50;41.60;;;;;;5033581;28;45301;-54
2022/12/08 16:37:47;;;;;;;;;;;24.50;41.60;;;;;;5033120;28;45825;-60
2022/12/08 16:40:13;;;;;;;;;;;24.50;41.60;;;;;;5025401;28;45525;-56
2022/12/08 16:42:38;;;;;;;;;;;24.40;41.70;;;;;;5021803;28;45272;-57
2022/12/08 16:45:16;;;;;;;;;;;24.30;41.80;;;;;;5020199;28;45539;-59
2022/12/08 16:47:45;;;;;;;;;;;24.10;42.00;;;;;;5018625;28;45418;-56
2022/12/08 16:50:12;;;;;;;;;;;24.00;42.20;;;;;;5033219;28;45368;-56
2022/12/08 16:52:37;;;;;;;;;;;23.90;42.40;;;;;;5021292;28;45228;-59
2022/12/08 16:55:07;;;;;;;;;;;23.80;42.50;;;;;;5003204;28;45227;-62
2022/12/08 16:57:33;;;;;;;;;;;23.70;42.70;;;;;;5021479;28;46056;-56
2022/12/08 16:59:58;;;;;;;;;;;23.70;42.90;;;;;;5026620;28;45276;-61
2022/12/08 17:02:24;;;;;;;;;;;23.60;43.00;;;;;;5017382;28;44863;-61
2022/12/08 17:04:49;;;;;;;;;;;23.50;43.20;;;;;;5015823;28;45458;-61
2022/12/08 17:07:15;;;;;;;;;;;23.40;43.30;;;;;;5024973;28;47424;-56
2022/12/08 17:09:40;;;;;;;;;;;23.30;43.90;;;;;;5006691;28;45145;-58
2022/12/08 17:12:06;;;;;;;;;;;23.30;43.70;;;;;;5026305;28;45159;-58
2022/12/08 17:14:33;;;;;;;;;;;23.20;43.50;;;;;;5022609;28;45196;-54
2022/12/08 17:16:58;;;;;;;;;;;23.10;43.70;;;;;;5021488;28;45258;-56
2022/12/08 17:19:24;;;;;;;;;;;23.00;43.90;;;;;;5004239;28;45281;-62
2022/12/08 17:21:49;;;;;;;;;;;22.90;43.90;;;;;;5032331;28;45120;-58
2022/12/08 17:24:15;;;;;;;;;;;22.80;44.00;;;;;;5009542;28;45357;-54
2022/12/08 17:26:40;;;;;;;;;;;22.80;44.20;;;;;;5009202;28;45229;-59
2022/12/08 17:29:06;;;;;;;;;;;22.70;44.20;;;;;;4999827;28;45674;-57
2022/12/08 17:31:31;;;;;;;;;;;22.60;44.30;;;;;;5031189;28;45484;-58
2022/12/08 17:33:58;;;;;;;;;;;22.50;44.40;;;;;;5030110;28;45561;-56
2022/12/08 17:36:23;;;;;;;;;;;22.40;44.50;;;;;;5018690;28;45265;-57
2022/12/08 17:38:49;;;;;;;;;;;22.40;44.60;;;;;;5015345;28;45348;-56
2022/12/08 17:41:14;;;;;;;;;;;22.40;44.70;;;;;;5007131;28;45340;-56
2022/12/08 17:43:40;;;;;;;;;;;22.30;45.40;;;;;;5017076;28;45253;-56
2022/12/08 17:46:05;;;;;;;;;;;22.20;44.80;;;;;;5021685;28;45382;-55
2022/12/08 17:48:33;;;;;;;;;;;22.20;44.90;;;;;;5022056;28;45007;-52
2022/12/08 17:50:59;;;;;;;;;;;22.10;45.00;;;;;;5003900;28;45105;-62